Time;durP1;ratioP1;P1;durP2;ratioP2;P2;SDS_P1;SDS_P2;PMS_P1;PMS_P2;Temp;Humidity;BMP_temperature;BMP_pressure;BME280_temperature;BME280_humidity;BME280_pressure;Samples;Min_cycle;Max_cycle;Signal;HPM_P1;HPM_P2
2021/11/22 00:01:09;;;;;;;9.67;1.90;;;8.60;99.70;;;;;;5098920;28;20412;-69
2021/11/22 00:03:36;;;;;;;11.05;1.92;;;8.70;99.60;;;;;;5100476;28;20403;-70
2021/11/22 00:06:02;;;;;;;11.00;1.70;;;8.70;99.30;;;;;;5094521;28;20474;-69
2021/11/22 00:08:28;;;;;;;8.95;1.35;;;8.70;99.30;;;;;;5081047;28;20194;-70
2021/11/22 00:10:54;;;;;;;7.15;1.63;;;8.30;99.50;;;;;;5100360;28;20185;-70
2021/11/22 00:13:20;;;;;;;6.10;1.45;;;8.10;99.90;;;;;;5102806;28;20192;-70
2021/11/22 00:15:46;;;;;;;7.93;1.48;;;7.90;99.90;;;;;;5103016;28;20787;-70
2021/11/22 00:18:11;;;;;;;13.95;1.50;;;7.80;99.90;;;;;;5099163;28;20276;-70
2021/11/22 00:20:37;;;;;;;8.63;1.33;;;7.60;99.90;;;;;;5100646;28;20641;-69
2021/11/22 00:23:03;;;;;;;9.00;1.20;;;7.50;99.90;;;;;;5103438;28;20181;-70
2021/11/22 00:25:29;;;;;;;10.45;1.50;;;7.50;99.90;;;;;;5102884;28;20412;-70
2021/11/22 00:27:54;;;;;;;12.50;2.17;;;7.80;99.90;;;;;;5100435;28;20461;-69
2021/11/22 00:30:28;;;;;;;7.70;1.80;;;8.10;99.90;;;;;;5079203;28;20419;-69
2021/11/22 00:33:08;;;;;;;9.70;1.80;;;8.30;99.70;;;;;;5084874;28;20424;-70
2021/11/22 00:36:03;;;;;;;9.95;1.73;;;8.30;99.20;;;;;;5081023;28;20475;-69
2021/11/22 00:38:29;;;;;;;10.57;1.60;;;8.40;98.80;;;;;;5101337;28;20495;-69
2021/11/22 00:40:54;;;;;;;9.68;1.50;;;8.50;98.60;;;;;;5101381;28;20412;-70
2021/11/22 00:43:21;;;;;;;10.15;1.67;;;8.50;98.40;;;;;;5100739;28;20584;-69
2021/11/22 00:45:51;;;;;;;11.02;1.70;;;8.50;98.20;;;;;;5104838;28;20420;-70
2021/11/22 00:48:21;;;;;;;7.75;1.50;;;8.50;98.10;;;;;;5066444;28;20407;-70
2021/11/22 00:50:51;;;;;;;7.82;1.58;;;8.50;98.00;;;;;;5103570;28;20412;-69
2021/11/22 00:53:17;;;;;;;8.40;1.60;;;8.50;97.80;;;;;;5096261;28;20450;-69
2021/11/22 00:55:43;;;;;;;8.85;1.35;;;8.50;97.50;;;;;;5098641;28;20537;-69
2021/11/22 00:58:08;;;;;;;11.43;1.33;;;8.50;97.50;;;;;;5098559;28;20411;-70
2021/11/22 01:00:35;;;;;;;12.30;1.50;;;8.50;97.30;;;;;;5100587;28;20423;-70
2021/11/22 01:03:01;;;;;;;11.95;1.60;;;8.50;97.20;;;;;;5097935;28;20482;-70
2021/11/22 01:05:27;;;;;;;6.97;1.30;;;8.50;97.30;;;;;;5083935;28;20498;-70
2021/11/22 01:07:53;;;;;;;9.50;1.80;;;8.50;97.30;;;;;;5098108;28;20423;-70
2021/11/22 01:10:20;;;;;;;13.50;1.90;;;8.50;97.20;;;;;;5100951;28;20407;-69
2021/11/22 01:12:46;;;;;;;9.57;1.90;;;8.50;97.10;;;;;;5099646;28;20442;-69
2021/11/22 01:15:16;;;;;;;9.80;1.48;;;8.50;96.90;;;;;;5102547;28;20419;-69
2021/11/22 01:17:42;;;;;;;12.65;1.70;;;8.40;96.90;;;;;;5098649;28;20419;-69
2021/11/22 01:20:10;;;;;;;7.18;1.52;;;8.40;96.90;;;;;;5085048;28;20495;-69
2021/11/22 01:22:37;;;;;;;10.80;1.70;;;8.40;96.80;;;;;;5087628;28;20405;-69
2021/11/22 01:25:04;;;;;;;12.45;1.95;;;8.40;96.90;;;;;;5096565;28;20417;-69
2021/11/22 01:27:29;;;;;;;9.02;1.58;;;8.40;96.90;;;;;;5098528;28;20890;-70
2021/11/22 01:29:55;;;;;;;10.30;1.80;;;8.40;96.90;;;;;;5099677;28;20420;-69
2021/11/22 01:32:21;;;;;;;8.50;1.60;;;8.40;96.80;;;;;;5103201;28;20513;-69
2021/11/22 01:34:46;;;;;;;8.33;1.53;;;8.40;96.70;;;;;;5100723;28;20413;-69
2021/11/22 01:37:12;;;;;;;9.50;1.60;;;8.40;96.80;;;;;;5100845;28;20423;-69
2021/11/22 01:39:38;;;;;;;10.47;1.70;;;8.30;96.70;;;;;;5089744;28;20423;-70
2021/11/22 01:42:04;;;;;;;9.97;1.57;;;8.30;96.70;;;;;;5103656;28;20423;-70
2021/11/22 01:44:30;;;;;;;12.85;1.80;;;8.30;96.70;;;;;;5106307;28;20929;-69
2021/11/22 01:46:56;;;;;;;10.47;1.80;;;8.30;96.60;;;;;;5105253;28;20420;-69
2021/11/22 01:49:21;;;;;;;9.65;1.80;;;8.30;96.60;;;;;;5087702;28;20411;-69
2021/11/22 01:51:47;;;;;;;9.13;1.63;;;8.30;96.60;;;;;;5105474;28;20412;-69
2021/11/22 01:54:16;;;;;;;10.45;1.58;;;8.20;96.80;;;;;;5074959;28;20419;-69
2021/11/22 01:56:45;;;;;;;12.38;1.60;;;8.20;96.90;;;;;;5080766;28;20418;-69
2021/11/22 01:59:16;;;;;;;9.47;1.40;;;8.20;96.90;;;;;;5102664;28;20423;-69
2021/11/22 02:01:43;;;;;;;9.23;1.40;;;8.20;97.00;;;;;;5098230;28;20420;-68
2021/11/22 02:04:08;;;;;;;9.70;1.40;;;8.20;97.00;;;;;;5105514;28;20411;-69
2021/11/22 02:06:34;;;;;;;9.37;1.50;;;8.20;97.00;;;;;;5101154;28;21456;-69
2021/11/22 02:09:00;;;;;;;8.13;1.38;;;8.20;96.80;;;;;;5099456;28;20882;-68
2021/11/22 02:11:26;;;;;;;9.77;1.60;;;8.20;97.00;;;;;;5103104;28;20416;-69
2021/11/22 02:13:52;;;;;;;7.60;1.27;;;8.20;97.10;;;;;;5098564;28;20465;-69
2021/11/22 02:16:17;;;;;;;9.63;1.55;;;8.20;97.10;;;;;;5077993;28;20590;-69
2021/11/22 02:18:43;;;;;;;8.10;1.43;;;8.20;96.80;;;;;;5103153;28;20491;-70
2021/11/22 02:21:10;;;;;;;13.27;1.77;;;8.20;96.60;;;;;;5103242;28;20435;-70
2021/11/22 02:23:36;;;;;;;10.02;1.50;;;8.20;96.60;;;;;;5084899;28;20767;-70
2021/11/22 02:26:01;;;;;;;11.57;1.70;;;8.20;96.30;;;;;;5103978;28;20416;-70
2021/11/22 02:28:27;;;;;;;8.07;1.40;;;8.20;96.30;;;;;;5095734;28;20425;-69
2021/11/22 02:30:53;;;;;;;8.27;1.30;;;8.20;96.30;;;;;;5101762;28;20430;-70
2021/11/22 02:33:24;;;;;;;9.80;1.30;;;8.20;96.20;;;;;;5096661;28;20425;-70
2021/11/22 02:35:54;;;;;;;5.93;1.08;;;8.20;96.20;;;;;;5083974;28;20896;-70
2021/11/22 02:38:23;;;;;;;8.15;1.10;;;8.20;96.30;;;;;;5097596;28;20460;-70
2021/11/22 02:40:49;;;;;;;11.73;1.35;;;8.10;96.50;;;;;;5102967;28;20444;-70
2021/11/22 02:43:16;;;;;;;10.00;1.00;;;8.10;96.50;;;;;;5101615;28;20420;-69
2021/11/22 02:45:42;;;;;;;6.72;1.20;;;8.10;96.60;;;;;;5105239;28;20904;-70
2021/11/22 02:48:07;;;;;;;11.40;1.20;;;8.10;96.60;;;;;;5101835;28;20418;-69
2021/11/22 02:50:34;;;;;;;9.55;1.33;;;8.10;96.80;;;;;;5093668;28;20414;-70
2021/11/22 02:52:59;;;;;;;7.50;1.30;;;8.10;96.80;;;;;;5098350;28;20468;-69
2021/11/22 02:55:25;;;;;;;11.15;1.20;;;8.10;96.80;;;;;;5103684;28;20461;-70
2021/11/22 02:57:51;;;;;;;7.93;1.27;;;8.10;96.90;;;;;;5100055;28;21178;-69
2021/11/22 03:00:24;;;;;;;9.18;1.48;;;8.10;97.00;;;;;;5076691;28;20413;-69
2021/11/22 03:02:51;;;;;;;10.82;1.20;;;8.10;96.90;;;;;;5080929;28;21128;-71
2021/11/22 03:05:17;;;;;;;8.23;1.40;;;8.00;96.90;;;;;;5098934;28;20417;-69
2021/11/22 03:07:44;;;;;;;10.13;1.38;;;8.00;96.90;;;;;;5100082;28;20412;-68
2021/11/22 03:10:13;;;;;;;10.45;1.30;;;8.00;96.90;;;;;;5098284;28;20445;-69
2021/11/22 03:12:39;;;;;;;12.73;1.55;;;8.00;96.80;;;;;;5090800;28;20406;-69
2021/11/22 03:15:10;;;;;;;8.82;1.35;;;8.00;97.00;;;;;;5080035;28;20473;-69
2021/11/22 03:17:36;;;;;;;9.40;1.48;;;8.00;97.00;;;;;;5098556;28;20411;-70
2021/11/22 03:20:04;;;;;;;9.45;1.40;;;8.00;97.10;;;;;;5101968;28;20408;-69
2021/11/22 03:22:29;;;;;;;9.70;1.23;;;8.00;97.30;;;;;;5103782;28;20411;-69
2021/11/22 03:24:55;;;;;;;8.17;1.20;;;7.90;97.40;;;;;;5101033;28;20497;-70
2021/11/22 03:27:21;;;;;;;11.20;1.40;;;7.90;97.40;;;;;;5095911;28;20963;-69
2021/11/22 03:29:47;;;;;;;8.70;1.40;;;7.90;97.50;;;;;;5084211;28;20951;-69
2021/11/22 03:32:12;;;;;;;10.13;1.13;;;7.90;97.40;;;;;;5095954;28;20449;-69
2021/11/22 03:34:38;;;;;;;9.40;1.37;;;7.90;97.50;;;;;;5099288;28;20410;-69
2021/11/22 03:37:05;;;;;;;10.50;1.50;;;7.90;97.60;;;;;;5099146;28;20415;-70
2021/11/22 03:39:33;;;;;;;9.40;1.38;;;7.90;97.60;;;;;;5103583;28;20416;-70
2021/11/22 03:42:01;;;;;;;10.60;1.50;;;7.90;97.60;;;;;;5102603;28;20934;-71
2021/11/22 03:44:27;;;;;;;7.00;1.77;;;7.90;97.70;;;;;;5097558;28;20412;-70
2021/11/22 03:46:55;;;;;;;9.75;2.00;;;7.90;97.70;;;;;;5102170;28;20411;-70
2021/11/22 03:49:22;;;;;;;8.23;1.83;;;7.90;97.60;;;;;;5104222;28;20503;-69
2021/11/22 03:51:48;;;;;;;11.02;1.70;;;7.90;97.70;;;;;;5101692;28;21058;-70
2021/11/22 03:54:15;;;;;;;9.05;1.42;;;7.90;97.70;;;;;;5100108;28;20412;-69
2021/11/22 03:56:41;;;;;;;10.25;1.25;;;7.80;97.60;;;;;;5101059;28;20922;-69
2021/11/22 03:59:09;;;;;;;10.48;1.60;;;7.80;97.60;;;;;;5104319;28;20730;-70
2021/11/22 04:01:36;;;;;;;17.38;1.73;;;7.80;97.60;;;;;;5098419;28;20407;-70
2021/11/22 04:04:02;;;;;;;8.55;1.33;;;7.80;97.70;;;;;;5098655;28;20496;-70
2021/11/22 04:06:28;;;;;;;11.87;1.33;;;7.80;97.70;;;;;;5083546;28;20416;-70
2021/11/22 04:08:53;;;;;;;11.93;1.33;;;7.80;97.70;;;;;;5103685;28;20423;-70
2021/11/22 04:11:20;;;;;;;7.87;1.47;;;7.80;97.70;;;;;;5074763;28;20417;-70
2021/11/22 04:13:46;;;;;;;10.88;1.50;;;7.80;97.70;;;;;;5093451;28;20438;-70
2021/11/22 04:16:12;;;;;;;7.70;1.40;;;7.80;97.80;;;;;;5080491;28;20443;-70
2021/11/22 04:18:38;;;;;;;8.70;1.40;;;7.70;97.80;;;;;;5102239;28;21069;-70
2021/11/22 04:21:04;;;;;;;9.40;1.30;;;7.70;98.00;;;;;;5099350;28;20498;-70
2021/11/22 04:23:30;;;;;;;9.90;1.40;;;7.70;98.00;;;;;;5095572;28;20507;-69
2021/11/22 04:25:56;;;;;;;8.00;1.20;;;7.70;98.00;;;;;;5099666;28;20421;-70
2021/11/22 04:28:22;;;;;;;10.57;1.55;;;7.70;97.90;;;;;;5099306;28;20908;-70
2021/11/22 04:30:48;;;;;;;11.73;1.60;;;7.70;97.90;;;;;;5097824;28;20415;-69
2021/11/22 04:33:14;;;;;;;12.00;2.40;;;7.70;97.90;;;;;;5095778;28;20494;-69
2021/11/22 04:35:39;;;;;;;12.65;1.80;;;7.70;98.40;;;;;;5099293;28;23015;-69
2021/11/22 04:38:05;;;;;;;10.85;1.30;;;7.70;98.10;;;;;;5082363;28;20450;-70
2021/11/22 04:40:31;;;;;;;10.30;1.40;;;7.70;98.00;;;;;;5085723;28;20800;-70
2021/11/22 04:42:57;;;;;;;12.07;1.52;;;7.70;98.00;;;;;;5101554;28;20487;-69
2021/11/22 04:45:31;;;;;;;11.32;1.50;;;7.70;98.30;;;;;;5103618;28;20493;-70
2021/11/22 04:48:00;;;;;;;9.30;1.48;;;7.70;97.90;;;;;;5093978;28;20417;-69
2021/11/22 04:50:25;;;;;;;11.80;1.80;;;7.70;97.90;;;;;;5096756;28;20424;-69
2021/11/22 04:52:51;;;;;;;12.40;1.40;;;7.70;98.00;;;;;;5084180;28;20756;-69
2021/11/22 04:55:18;;;;;;;8.13;1.45;;;7.70;98.10;;;;;;5099533;28;20427;-69
2021/11/22 04:57:45;;;;;;;10.83;1.50;;;7.60;98.10;;;;;;5102350;28;20764;-70
2021/11/22 05:00:13;;;;;;;10.05;1.52;;;7.60;98.10;;;;;;5099785;28;20415;-69
2021/11/22 05:02:39;;;;;;;10.05;1.50;;;7.60;98.10;;;;;;5096094;28;20558;-69
2021/11/22 05:05:07;;;;;;;12.35;1.70;;;7.60;98.20;;;;;;5103430;28;20419;-70
2021/11/22 05:07:33;;;;;;;8.85;1.50;;;7.60;98.20;;;;;;5103732;28;20500;-69
2021/11/22 05:09:58;;;;;;;15.05;1.80;;;7.60;98.30;;;;;;5105859;28;20427;-70
2021/11/22 05:12:24;;;;;;;8.20;1.50;;;7.60;98.30;;;;;;5103416;28;20404;-70
2021/11/22 05:14:50;;;;;;;7.22;1.52;;;7.60;98.20;;;;;;5103018;28;20486;-69
2021/11/22 05:17:17;;;;;;;10.30;1.65;;;7.50;98.30;;;;;;5103879;28;20461;-71
2021/11/22 05:19:42;;;;;;;7.55;1.77;;;7.50;98.40;;;;;;5104188;28;20485;-70
2021/11/22 05:22:09;;;;;;;11.07;1.80;;;7.50;98.40;;;;;;5088715;28;20860;-69
2021/11/22 05:24:34;;;;;;;11.88;2.15;;;7.50;98.50;;;;;;5105169;28;20973;-70
2021/11/22 05:27:03;;;;;;;10.07;1.90;;;7.50;98.60;;;;;;5106347;28;20411;-70
2021/11/22 05:29:29;;;;;;;11.80;2.00;;;7.50;98.50;;;;;;5105483;28;20411;-72
2021/11/22 05:31:54;;;;;;;9.30;2.17;;;7.50;98.60;;;;;;5105881;28;20431;-70
2021/11/22 05:34:20;;;;;;;10.63;1.65;;;7.50;98.60;;;;;;5107594;28;20499;-70
2021/11/22 05:36:46;;;;;;;11.53;1.77;;;7.40;98.60;;;;;;5104215;28;20415;-70
2021/11/22 05:39:12;;;;;;;10.68;1.70;;;7.40;98.60;;;;;;5106036;28;20437;-70
2021/11/22 05:41:39;;;;;;;13.10;2.13;;;7.40;98.60;;;;;;5100415;28;20425;-70
2021/11/22 05:44:04;;;;;;;10.95;2.20;;;7.40;98.60;;;;;;5099053;28;20810;-70
2021/11/22 05:46:30;;;;;;;11.85;2.28;;;7.40;98.70;;;;;;5101989;28;20514;-70
2021/11/22 05:48:56;;;;;;;10.57;2.20;;;7.40;98.70;;;;;;5069940;28;20420;-70
2021/11/22 05:51:23;;;;;;;9.20;2.10;;;7.30;98.70;;;;;;5102795;28;20582;-70
2021/11/22 05:53:49;;;;;;;14.45;2.20;;;7.30;98.80;;;;;;5103563;28;20204;-70
2021/11/22 05:56:18;;;;;;;7.22;1.88;;;6.90;99.00;;;;;;5082620;28;20201;-69
2021/11/22 05:58:44;;;;;;;7.88;1.88;;;6.70;99.30;;;;;;5087176;28;20268;-70
2021/11/22 06:01:10;;;;;;;8.98;1.75;;;6.50;99.60;;;;;;5099231;28;20305;-70
2021/11/22 06:03:36;;;;;;;9.60;1.83;;;6.30;99.70;;;;;;5100723;28;20960;-70
2021/11/22 06:06:02;;;;;;;10.63;1.70;;;6.20;99.80;;;;;;5106397;28;20214;-69
2021/11/22 06:08:28;;;;;;;12.50;3.40;;;6.00;99.80;;;;;;5097111;28;20523;-69
2021/11/22 06:10:54;;;;;;;15.13;4.03;;;6.30;99.90;;;;;;5102669;28;20971;-70
2021/11/22 06:13:20;;;;;;;11.65;2.85;;;6.60;99.90;;;;;;5104245;28;20497;-70
2021/11/22 06:15:48;;;;;;;12.30;2.10;;;6.70;99.90;;;;;;5099103;28;20416;-70
2021/11/22 06:18:15;;;;;;;11.60;2.30;;;6.90;99.90;;;;;;5085819;28;20786;-70
2021/11/22 06:20:41;;;;;;;11.23;2.47;;;6.90;99.90;;;;;;5102585;28;20766;-70
2021/11/22 06:23:07;;;;;;;13.55;2.42;;;7.00;99.90;;;;;;5102035;28;20485;-69
2021/11/22 06:25:34;;;;;;;13.02;2.38;;;7.00;99.90;;;;;;5101250;28;20478;-70
2021/11/22 06:28:01;;;;;;;11.38;2.20;;;7.00;99.90;;;;;;5086830;28;20407;-70
2021/11/22 06:30:26;;;;;;;13.20;3.42;;;7.10;99.90;;;;;;5099259;28;20455;-69
2021/11/22 06:32:53;;;;;;;13.73;2.95;;;7.10;99.90;;;;;;5103748;28;20439;-69
2021/11/22 06:35:20;;;;;;;13.50;2.30;;;7.10;99.90;;;;;;5101811;28;20416;-69
2021/11/22 06:37:47;;;;;;;12.10;2.30;;;7.10;99.90;;;;;;5102929;28;20461;-70
2021/11/22 06:40:13;;;;;;;13.60;2.17;;;7.10;99.90;;;;;;5102132;28;20413;-70
2021/11/22 06:42:39;;;;;;;11.17;2.00;;;7.10;99.90;;;;;;5096177;28;20424;-69
2021/11/22 06:45:07;;;;;;;17.52;2.47;;;7.10;99.90;;;;;;5104868;28;20435;-70
2021/11/22 06:47:33;;;;;;;9.77;1.83;;;7.10;99.90;;;;;;5079527;28;20461;-70
2021/11/22 06:49:59;;;;;;;11.60;1.90;;;7.10;99.90;;;;;;5093773;28;20418;-69
2021/11/22 06:52:25;;;;;;;8.45;2.13;;;7.10;99.90;;;;;;5099179;28;20465;-69
2021/11/22 06:54:52;;;;;;;11.53;2.03;;;7.10;99.90;;;;;;5102941;28;20407;-69
2021/11/22 06:57:19;;;;;;;10.75;2.20;;;7.10;99.90;;;;;;5096700;28;20421;-69
2021/11/22 06:59:45;;;;;;;12.55;1.90;;;7.00;99.90;;;;;;5079764;28;20964;-69
2021/11/22 07:02:16;;;;;;;11.00;2.42;;;7.10;99.90;;;;;;5100514;28;20753;-69
2021/11/22 07:04:43;;;;;;;11.07;2.78;;;7.10;99.90;;;;;;5098825;28;20421;-69
2021/11/22 07:07:10;;;;;;;11.43;2.90;;;7.00;99.90;;;;;;5098096;28;20493;-70
2021/11/22 07:09:35;;;;;;;11.48;3.40;;;7.10;99.90;;;;;;5096809;28;20408;-69
2021/11/22 07:12:03;;;;;;;12.10;4.10;;;7.00;99.90;;;;;;5101409;28;20408;-68
2021/11/22 07:14:29;;;;;;;13.45;3.65;;;7.00;99.90;;;;;;5100717;28;20403;-69
2021/11/22 07:16:54;;;;;;;13.23;3.43;;;7.00;99.90;;;;;;5084296;28;20523;-68
2021/11/22 07:19:21;;;;;;;13.32;3.38;;;7.00;99.90;;;;;;5103365;28;20416;-69
2021/11/22 07:21:47;;;;;;;13.73;3.00;;;7.00;99.90;;;;;;5099092;28;20396;-71
2021/11/22 07:24:13;;;;;;;13.43;2.90;;;7.00;99.90;;;;;;5103701;28;20450;-69
2021/11/22 07:26:39;;;;;;;10.63;3.28;;;7.00;99.90;;;;;;5092004;28;20425;-70
2021/11/22 07:29:06;;;;;;;14.50;3.67;;;7.00;99.90;;;;;;5099475;28;20414;-71
2021/11/22 07:31:32;;;;;;;12.30;3.83;;;7.00;99.90;;;;;;5092813;28;20585;-69
2021/11/22 07:33:58;;;;;;;13.50;4.47;;;7.10;99.90;;;;;;5103889;28;20455;-70
2021/11/22 07:36:23;;;;;;;14.50;4.03;;;7.10;99.90;;;;;;5083026;28;20515;-69
2021/11/22 07:38:50;;;;;;;12.27;4.43;;;7.10;99.90;;;;;;5099849;28;21001;-68
2021/11/22 07:41:16;;;;;;;15.97;4.40;;;7.10;99.90;;;;;;5098829;28;20439;-69
2021/11/22 07:43:42;;;;;;;12.55;4.13;;;7.10;99.90;;;;;;5102209;28;20408;-69
2021/11/22 07:46:08;;;;;;;11.32;3.70;;;7.10;99.90;;;;;;5105448;28;20881;-70
2021/11/22 07:48:33;;;;;;;18.10;4.40;;;7.20;99.90;;;;;;5095917;28;20449;-68
2021/11/22 07:50:59;;;;;;;15.47;3.60;;;7.20;99.90;;;;;;5092747;28;20753;-69
2021/11/22 07:53:25;;;;;;;13.07;3.75;;;7.20;99.90;;;;;;5101934;28;20463;-69
2021/11/22 07:55:51;;;;;;;10.77;2.90;;;7.30;99.90;;;;;;5102314;28;20491;-68
2021/11/22 07:58:17;;;;;;;9.60;2.63;;;7.30;99.90;;;;;;5104945;28;20494;-69
2021/11/22 08:00:43;;;;;;;18.70;7.32;;;7.30;99.90;;;;;;5105613;28;20443;-69
2021/11/22 08:03:09;;;;;;;13.43;4.63;;;7.40;99.90;;;;;;5095717;28;20841;-70
2021/11/22 08:05:34;;;;;;;13.10;2.90;;;7.40;99.90;;;;;;5086450;28;20400;-70
2021/11/22 08:08:02;;;;;;;13.10;3.10;;;7.50;99.90;;;;;;5099695;28;20408;-70
2021/11/22 08:10:29;;;;;;;10.23;2.40;;;7.50;99.90;;;;;;5080966;28;20468;-69
2021/11/22 08:12:58;;;;;;;9.93;2.08;;;7.60;99.90;;;;;;5102726;28;20415;-69
2021/11/22 08:15:25;;;;;;;11.13;1.92;;;7.70;99.90;;;;;;5102277;28;20917;-69
2021/11/22 08:17:51;;;;;;;9.13;2.20;;;7.80;99.90;;;;;;5098129;28;20499;-69
2021/11/22 08:20:20;;;;;;;8.93;2.13;;;7.90;99.90;;;;;;5083053;28;20422;-69
2021/11/22 08:22:47;;;;;;;11.35;2.10;;;8.00;99.90;;;;;;5082540;28;20412;-69
2021/11/22 08:25:18;;;;;;;10.82;2.13;;;8.00;99.90;;;;;;5081477;28;22347;-71
2021/11/22 08:27:44;;;;;;;13.30;1.60;;;7.70;99.90;;;;;;5099378;28;20186;-69
2021/11/22 08:30:15;;;;;;;8.30;1.80;;;7.40;99.90;;;;;;5104629;28;20213;-69
2021/11/22 08:32:41;;;;;;;;;;;7.30;99.90;;;;;;5100050;28;20020;-70
2021/11/22 08:35:08;;;;;;;18.45;5.47;;;7.20;99.90;;;;;;5083312;28;20401;-70
2021/11/22 08:37:35;;;;;;;10.07;2.90;;;8.20;99.90;;;;;;5103437;28;20185;-69
2021/11/22 08:40:00;;;;;;;;;;;8.90;99.90;;;;;;5103822;28;20480;-72
2021/11/22 08:42:26;;;;;;;;;;;9.70;99.90;;;;;;5104336;28;19920;-69
2021/11/22 08:44:52;;;;;;;;;;;10.60;99.90;;;;;;5104840;28;20364;-69
2021/11/22 08:47:17;;;;;;;;;;;11.50;99.90;;;;;;5103096;28;19916;-70
2021/11/22 08:49:43;;;;;;;;;;;12.50;99.90;;;;;;5105442;28;20508;-69
2021/11/22 08:52:12;;;;;;;;;;;13.40;99.90;;;;;;5102372;28;20416;-70
2021/11/22 08:54:38;;;;;;;;;;;14.30;99.90;;;;;;5100395;28;19912;-69
2021/11/22 08:57:05;;;;;;;;;;;15.10;99.90;;;;;;5100522;28;19965;-70
2021/11/22 08:59:31;;;;;;;;;;;15.80;99.90;;;;;;5098094;28;19908;-70
2021/11/22 09:01:56;;;;;;;;;;;16.50;99.90;;;;;;5083897;28;19918;-68
2021/11/22 09:04:24;;;;;;;;;;;17.00;99.90;;;;;;5105584;28;19964;-69
2021/11/22 09:06:50;;;;;;;;;;;17.50;99.90;;;;;;5099647;28;19908;-69
2021/11/22 09:09:16;;;;;;;;;;;17.80;99.90;;;;;;5102101;28;19919;-68
2021/11/22 09:11:42;;;;;;;;;;;18.00;99.70;;;;;;5094998;28;19908;-68
2021/11/22 09:14:08;;;;;;;;;;;18.30;99.50;;;;;;5099106;28;19918;-71
2021/11/22 09:16:33;;;;;;;6.85;1.30;;;18.20;99.00;;;;;;5103007;28;20184;-70
2021/11/22 09:19:02;;;;;;;6.70;1.77;;;18.00;98.60;;;;;;5095073;28;20458;-69
2021/11/22 09:21:27;;;;;;;6.85;1.38;;;18.90;66.90;;;;;;5094486;28;20395;-68
2021/11/22 09:23:53;;;;;;;9.45;1.80;;;19.20;59.40;;;;;;5081040;28;20465;-68
2021/11/22 09:26:19;;;;;;;9.73;3.05;;;20.00;57.10;;;;;;5099080;28;20417;-69
2021/11/22 09:28:46;;;;;;;6.20;1.42;;;21.00;53.50;;;;;;5101254;28;20415;-69
2021/11/22 09:31:13;;;;;;;8.13;1.70;;;21.90;50.60;;;;;;5095135;28;20406;-70
2021/11/22 09:33:38;;;;;;;10.57;1.63;;;22.70;47.20;;;;;;5094626;28;20415;-68
2021/11/22 09:36:05;;;;;;;6.95;1.27;;;22.90;45.70;;;;;;5099176;28;20522;-70
2021/11/22 09:38:30;;;;;;;7.27;1.40;;;23.20;44.80;;;;;;5103576;28;20439;-69
2021/11/22 09:40:57;;;;;;;8.20;1.30;;;23.70;43.30;;;;;;5098885;28;20445;-70
2021/11/22 09:43:24;;;;;;;9.03;1.50;;;24.10;42.30;;;;;;5097514;28;20964;-69
2021/11/22 09:45:50;;;;;;;9.73;1.92;;;24.50;40.90;;;;;;5094101;28;20433;-70
2021/11/22 09:48:16;;;;;;;6.45;1.60;;;24.90;39.80;;;;;;5099188;28;20411;-69
2021/11/22 09:50:42;;;;;;;9.43;1.73;;;25.20;38.70;;;;;;5096137;28;20406;-69
2021/11/22 09:53:08;;;;;;;8.17;1.67;;;25.40;38.50;;;;;;5095941;28;20424;-70
2021/11/22 09:55:36;;;;;;;6.95;1.70;;;25.60;37.30;;;;;;5105029;28;20601;-69
2021/11/22 09:58:04;;;;;;;5.15;1.30;;;25.70;37.00;;;;;;5102992;28;20419;-69
2021/11/22 10:00:42;;;;;;;5.55;1.33;;;25.80;36.20;;;;;;5099684;28;20445;-70
2021/11/22 10:03:13;;;;;;;6.38;1.23;;;25.90;35.80;;;;;;5095590;28;20415;-71
2021/11/22 10:05:42;;;;;;;7.30;1.70;;;25.90;35.50;;;;;;5098677;28;20413;-70
2021/11/22 10:08:19;;;;;;;6.53;1.30;;;25.70;35.50;;;;;;5097083;28;20418;-69
2021/11/22 10:10:50;;;;;;;8.85;1.73;;;24.90;35.80;;;;;;5101398;28;20410;-70
2021/11/22 10:13:29;;;;;;;6.47;1.38;;;23.90;38.00;;;;;;5097189;28;20415;-70
2021/11/22 10:16:17;;;;;;;8.77;1.40;;;22.70;40.40;;;;;;5101713;28;20439;-69
2021/11/22 10:18:52;;;;;;;5.95;1.20;;;21.60;42.30;;;;;;5088771;28;20495;-69
2021/11/22 10:21:35;;;;;;;4.53;1.33;;;20.50;45.10;;;;;;5104166;28;20411;-70
2021/11/22 10:24:07;;;;;;;6.78;1.40;;;19.50;46.90;;;;;;5099455;28;20829;-69
2021/11/22 10:26:45;;;;;;;5.75;1.40;;;18.70;49.00;;;;;;5104628;28;21056;-70
2021/11/22 10:29:23;;;;;;;6.70;1.63;;;18.00;51.30;;;;;;5104163;28;20749;-69
2021/11/22 10:31:53;;;;;;;7.10;1.60;;;17.40;53.30;;;;;;5101546;28;20419;-70
2021/11/22 10:34:19;;;;;;;7.38;1.48;;;17.00;55.00;;;;;;5102193;28;21078;-69
2021/11/22 10:36:53;;;;;;;8.07;1.47;;;16.60;56.40;;;;;;5082743;28;20408;-69
2021/11/22 10:39:21;;;;;;;8.93;1.73;;;16.30;58.30;;;;;;5104046;28;20523;-71
2021/11/22 10:41:46;;;;;;;5.70;1.50;;;16.00;59.30;;;;;;5093285;28;20411;-70
2021/11/22 10:44:15;;;;;;;7.97;1.45;;;15.70;59.70;;;;;;5102581;28;20767;-70
2021/11/22 10:46:49;;;;;;;8.15;1.48;;;15.50;60.00;;;;;;5103938;28;20513;-70
2021/11/22 10:49:27;;;;;;;5.43;1.40;;;15.40;60.90;;;;;;5105041;28;20438;-69
2021/11/22 10:52:16;;;;;;;8.65;1.50;;;15.40;61.10;;;;;;5081993;28;20851;-72
2021/11/22 10:54:57;;;;;;;7.10;1.60;;;15.70;61.00;;;;;;5081285;28;21048;-71
2021/11/22 10:57:31;;;;;;;9.57;1.38;;;16.60;58.40;;;;;;5085398;28;20457;-70
2021/11/22 10:59:57;;;;;;;4.47;1.30;;;17.70;55.20;;;;;;5102940;28;20400;-72
2021/11/22 11:02:39;;;;;;;6.50;1.60;;;18.70;52.70;;;;;;5100426;28;20758;-68
2021/11/22 11:05:05;;;;;;;6.28;1.40;;;19.30;49.60;;;;;;5103009;28;20424;-70
2021/11/22 11:07:31;;;;;;;8.48;1.40;;;19.30;48.90;;;;;;5098902;28;20408;-69
2021/11/22 11:09:58;;;;;;;3.80;1.05;;;19.50;48.90;;;;;;5100582;28;20461;-69
2021/11/22 11:12:25;;;;;;;5.77;1.10;;;20.00;47.00;;;;;;5098320;28;20447;-69
2021/11/22 11:14:56;;;;;;;3.90;0.90;;;20.60;45.40;;;;;;5102336;28;20746;-69
2021/11/22 11:17:24;;;;;;;4.00;1.00;;;21.10;43.50;;;;;;5099082;28;20412;-69
2021/11/22 11:19:54;;;;;;;3.28;0.90;;;21.60;42.60;;;;;;5105394;28;21137;-69
2021/11/22 11:22:21;;;;;;;5.30;1.10;;;22.10;41.20;;;;;;5101749;28;20469;-72
2021/11/22 11:24:48;;;;;;;5.75;0.90;;;22.60;40.80;;;;;;5103875;28;20416;-69
2021/11/22 11:27:14;;;;;;;5.65;1.00;;;23.00;39.50;;;;;;5087108;28;20495;-69
2021/11/22 11:29:39;;;;;;;6.53;1.10;;;23.30;38.30;;;;;;5100886;28;20628;-70
2021/11/22 11:32:05;;;;;;;4.00;0.87;;;23.50;38.20;;;;;;5100028;28;20420;-71
2021/11/22 11:34:33;;;;;;;5.68;1.10;;;23.70;38.20;;;;;;5102725;28;22105;-70
2021/11/22 11:37:04;;;;;;;5.10;0.80;;;23.80;37.50;;;;;;5102249;28;20423;-70
2021/11/22 11:39:59;;;;;;;4.03;0.82;;;24.00;37.80;;;;;;5103404;28;20407;-71
2021/11/22 11:42:50;;;;;;;3.95;0.98;;;24.10;36.90;;;;;;5080116;28;20451;-69
2021/11/22 11:45:31;;;;;;;3.85;0.75;;;24.20;36.60;;;;;;5085525;28;20495;-69
2021/11/22 11:48:29;;;;;;;4.78;1.00;;;24.10;36.70;;;;;;5104492;28;20730;-70
2021/11/22 11:51:14;;;;;;;4.15;0.90;;;24.10;36.60;;;;;;5099748;28;20437;-71
2021/11/22 11:54:04;;;;;;;3.83;1.00;;;24.20;36.30;;;;;;5100846;28;20885;-69
2021/11/22 11:56:44;;;;;;;3.83;0.70;;;24.20;36.70;;;;;;5074715;28;20944;-69
2021/11/22 11:59:15;;;;;;;5.07;1.00;;;24.20;36.40;;;;;;5101512;28;20411;-70
2021/11/22 12:01:58;;;;;;;4.13;0.90;;;24.20;36.00;;;;;;5103140;28;20400;-70
2021/11/22 12:04:25;;;;;;;4.17;0.90;;;24.20;35.90;;;;;;5098109;28;20401;-72
2021/11/22 12:06:52;;;;;;;3.03;0.80;;;24.20;35.80;;;;;;5095374;28;20409;-68
2021/11/22 12:09:39;;;;;;;4.47;1.00;;;24.20;36.00;;;;;;5096790;28;20405;-69
2021/11/22 12:12:07;;;;;;;3.95;1.00;;;24.10;36.60;;;;;;5101186;28;20953;-69
2021/11/22 12:14:51;;;;;;;5.28;1.20;;;24.00;36.80;;;;;;5099228;28;20888;-68
2021/11/22 12:17:35;;;;;;;3.10;1.10;;;23.90;37.00;;;;;;5095824;28;20493;-68
2021/11/22 12:20:05;;;;;;;6.88;1.05;;;23.90;36.80;;;;;;5102332;28;21070;-69
2021/11/22 12:22:36;;;;;;;4.22;1.00;;;23.90;36.80;;;;;;5086661;28;20431;-69
2021/11/22 12:25:02;;;;;;;4.78;0.90;;;23.80;36.60;;;;;;5100994;28;20429;-70
2021/11/22 12:27:28;;;;;;;6.40;2.42;;;23.70;36.00;;;;;;5092679;28;20515;-69
2021/11/22 12:29:58;;;;;;;3.43;1.00;;;23.70;37.30;;;;;;5078689;28;21014;-72
2021/11/22 12:32:33;;;;;;;6.05;1.05;;;23.50;37.10;;;;;;5101049;28;20403;-71
2021/11/22 12:35:03;;;;;;;4.45;1.08;;;23.40;36.80;;;;;;5088465;28;20432;-69
2021/11/22 12:37:34;;;;;;;7.47;1.15;;;23.20;37.50;;;;;;5095490;28;20412;-69
2021/11/22 12:40:12;;;;;;;4.05;1.00;;;23.00;38.00;;;;;;5103691;28;20457;-69
2021/11/22 12:42:49;;;;;;;5.72;1.30;;;22.80;38.30;;;;;;5091102;28;20471;-70
2021/11/22 12:45:18;;;;;;;5.85;1.30;;;22.50;39.60;;;;;;5093935;28;20589;-69
2021/11/22 12:47:44;;;;;;;6.95;1.10;;;22.40;40.20;;;;;;5099576;28;20468;-69
2021/11/22 12:50:10;;;;;;;7.25;1.08;;;22.20;39.60;;;;;;5101530;28;20408;-69
2021/11/22 12:52:36;;;;;;;4.10;0.90;;;22.10;40.30;;;;;;5096071;28;20543;-71
2021/11/22 12:55:11;;;;;;;4.38;0.95;;;22.10;40.40;;;;;;5102945;28;20392;-71
2021/11/22 12:57:39;;;;;;;4.68;0.82;;;21.90;40.20;;;;;;5103194;28;20411;-69